Stairtown, Texas
Current Conditions -  °F | °C
As of 9:55 AM on Thursday 27 Nov 2014 (Local Time) from KT20 Reporting Station
Clear Clear  
Wind Chill: 56°   Ceiling: Unl
Heat Index: 56°   Visibility: 10mi
Dew Point: 35°   Wind: 10mph
Humidity: 45%   Direction: 40°NE
Pressure: 30.52"   Gusts: NA
Location:  29.6952°N, 97.6509°W
Report Text: KT20 271555Z AUTO 04009KT 10SM CLR 13/02 A3052 RMK AO2 T01320016
Loading
Personal Weather Stations






























Interactive Weather Map New forecast layout! Learn more

10-Day Weather Forecast

Advertisements
Track Severe Weather on mobile